sensor_id;sensor_type;location;lat;lon;timestamp;temperature;humidity
17956;DHT22;27666;51.498;11.966;2024-03-07T00:01:14;6.30;99.90
17956;DHT22;27666;51.498;11.966;2024-03-07T00:04:01;6.30;99.90
17956;DHT22;27666;51.498;11.966;2024-03-07T00:06:49;6.30;99.90
17956;DHT22;27666;51.498;11.966;2024-03-07T00:09:36;6.30;99.90
17956;DHT22;27666;51.498;11.966;2024-03-07T00:12:23;6.30;99.90
17956;DHT22;27666;51.498;11.966;2024-03-07T00:15:12;6.30;99.90
17956;DHT22;27666;51.498;11.966;2024-03-07T00:17:59;6.30;99.90
17956;DHT22;27666;51.498;11.966;2024-03-07T00:20:47;6.30;99.90
17956;DHT22;27666;51.498;11.966;2024-03-07T00:23:34;6.30;99.90
17956;DHT22;27666;51.498;11.966;2024-03-07T00:26:21;6.30;99.90
17956;DHT22;27666;51.498;11.966;2024-03-07T00:29:10;6.30;99.90
17956;DHT22;27666;51.498;11.966;2024-03-07T00:31:57;6.20;99.90
17956;DHT22;27666;51.498;11.966;2024-03-07T00:34:44;6.20;99.90
17956;DHT22;27666;51.498;11.966;2024-03-07T00:37:31;6.20;99.90
17956;DHT22;27666;51.498;11.966;2024-03-07T00:40:22;6.20;99.90
17956;DHT22;27666;51.498;11.966;2024-03-07T00:43:10;6.20;99.90
17956;DHT22;27666;51.498;11.966;2024-03-07T00:45:56;6.30;99.90
17956;DHT22;27666;51.498;11.966;2024-03-07T00:48:43;6.30;99.90
17956;DHT22;27666;51.498;11.966;2024-03-07T00:51:33;6.30;99.90
17956;DHT22;27666;51.498;11.966;2024-03-07T00:54:19;6.30;99.90
17956;DHT22;27666;51.498;11.966;2024-03-07T00:57:07;6.20;99.90
17956;DHT22;27666;51.498;11.966;2024-03-07T00:59:54;6.30;99.90
17956;DHT22;27666;51.498;11.966;2024-03-07T01:02:41;6.30;99.90
17956;DHT22;27666;51.498;11.966;2024-03-07T01:05:31;6.20;99.90
17956;DHT22;27666;51.498;11.966;2024-03-07T01:08:21;6.20;99.90
17956;DHT22;27666;51.498;11.966;2024-03-07T01:11:07;6.20;99.90
17956;DHT22;27666;51.498;11.966;2024-03-07T01:13:59;6.10;99.90
17956;DHT22;27666;51.498;11.966;2024-03-07T01:16:45;6.20;99.90
17956;DHT22;27666;51.498;11.966;2024-03-07T01:19:32;6.20;99.90
17956;DHT22;27666;51.498;11.966;2024-03-07T01:22:19;6.20;99.90
17956;DHT22;27666;51.498;11.966;2024-03-07T01:25:06;6.20;99.90
17956;DHT22;27666;51.498;11.966;2024-03-07T01:27:52;6.10;99.90
17956;DHT22;27666;51.498;11.966;2024-03-07T01:30:42;6.10;99.90
17956;DHT22;27666;51.498;11.966;2024-03-07T01:33:29;6.20;99.90
17956;DHT22;27666;51.498;11.966;2024-03-07T01:36:16;6.20;99.90
17956;DHT22;27666;51.498;11.966;2024-03-07T01:39:03;6.10;99.90
17956;DHT22;27666;51.498;11.966;2024-03-07T01:41:54;6.10;99.90
17956;DHT22;27666;51.498;11.966;2024-03-07T01:44:40;6.20;99.90
17956;DHT22;27666;51.498;11.966;2024-03-07T01:47:30;6.10;99.90
17956;DHT22;27666;51.498;11.966;2024-03-07T01:50:17;6.10;99.90
17956;DHT22;27666;51.498;11.966;2024-03-07T01:53:04;6.10;99.90
17956;DHT22;27666;51.498;11.966;2024-03-07T01:55:52;6.10;99.90
17956;DHT22;27666;51.498;11.966;2024-03-07T01:58:39;6.10;99.90
17956;DHT22;27666;51.498;11.966;2024-03-07T02:01:27;6.10;99.90
17956;DHT22;27666;51.498;11.966;2024-03-07T02:04:15;6.10;99.90
17956;DHT22;27666;51.498;11.966;2024-03-07T02:07:01;6.10;99.90
17956;DHT22;27666;51.498;11.966;2024-03-07T02:09:48;6.10;99.90
17956;DHT22;27666;51.498;11.966;2024-03-07T02:12:35;6.00;99.90
17956;DHT22;27666;51.498;11.966;2024-03-07T02:15:23;5.90;99.90
17956;DHT22;27666;51.498;11.966;2024-03-07T02:18:10;6.00;99.90
17956;DHT22;27666;51.498;11.966;2024-03-07T02:20:59;6.00;99.90
17956;DHT22;27666;51.498;11.966;2024-03-07T02:23:46;6.00;99.90
17956;DHT22;27666;51.498;11.966;2024-03-07T02:26:32;6.00;99.90
17956;DHT22;27666;51.498;11.966;2024-03-07T02:29:19;5.90;99.90
17956;DHT22;27666;51.498;11.966;2024-03-07T02:32:06;5.90;99.90
17956;DHT22;27666;51.498;11.966;2024-03-07T02:34:55;5.80;99.90
17956;DHT22;27666;51.498;11.966;2024-03-07T02:37:42;5.90;99.90
17956;DHT22;27666;51.498;11.966;2024-03-07T02:40:31;5.80;99.90
17956;DHT22;27666;51.498;11.966;2024-03-07T02:43:18;5.90;99.90
17956;DHT22;27666;51.498;11.966;2024-03-07T02:46:04;5.90;99.90
17956;DHT22;27666;51.498;11.966;2024-03-07T02:48:51;5.90;99.90
17956;DHT22;27666;51.498;11.966;2024-03-07T02:51:39;5.90;99.90
17956;DHT22;27666;51.498;11.966;2024-03-07T02:54:28;5.90;99.90
17956;DHT22;27666;51.498;11.966;2024-03-07T02:57:15;5.90;99.90
17956;DHT22;27666;51.498;11.966;2024-03-07T03:00:02;5.90;99.90
17956;DHT22;27666;51.498;11.966;2024-03-07T03:02:59;6.00;99.90
17956;DHT22;27666;51.498;11.966;2024-03-07T03:05:46;5.90;99.90
17956;DHT22;27666;51.498;11.966;2024-03-07T03:08:35;5.80;99.90
17956;DHT22;27666;51.498;11.966;2024-03-07T03:11:23;5.80;99.90
17956;DHT22;27666;51.498;11.966;2024-03-07T03:14:11;5.80;99.90
17956;DHT22;27666;51.498;11.966;2024-03-07T03:16:59;5.70;99.90
17956;DHT22;27666;51.498;11.966;2024-03-07T03:19:45;5.60;99.90
17956;DHT22;27666;51.498;11.966;2024-03-07T03:22:35;5.60;99.90
17956;DHT22;27666;51.498;11.966;2024-03-07T03:25:22;5.60;99.90
17956;DHT22;27666;51.498;11.966;2024-03-07T03:28:10;5.60;99.90
17956;DHT22;27666;51.498;11.966;2024-03-07T03:30:58;5.60;99.90
17956;DHT22;27666;51.498;11.966;2024-03-07T03:33:44;5.60;99.90
17956;DHT22;27666;51.498;11.966;2024-03-07T03:36:31;5.60;99.90
17956;DHT22;27666;51.498;11.966;2024-03-07T03:39:19;5.60;99.90
17956;DHT22;27666;51.498;11.966;2024-03-07T03:42:07;5.70;99.90
17956;DHT22;27666;51.498;11.966;2024-03-07T03:44:55;5.70;99.90
17956;DHT22;27666;51.498;11.966;2024-03-07T03:47:43;5.70;99.90
17956;DHT22;27666;51.498;11.966;2024-03-07T03:50:30;5.80;99.90
17956;DHT22;27666;51.498;11.966;2024-03-07T03:53:18;5.70;99.90
17956;DHT22;27666;51.498;11.966;2024-03-07T03:56:09;5.80;99.90
17956;DHT22;27666;51.498;11.966;2024-03-07T03:58:57;5.80;99.90
17956;DHT22;27666;51.498;11.966;2024-03-07T04:01:47;5.80;99.90
17956;DHT22;27666;51.498;11.966;2024-03-07T04:04:34;5.80;99.90
17956;DHT22;27666;51.498;11.966;2024-03-07T04:07:26;5.80;99.90
17956;DHT22;27666;51.498;11.966;2024-03-07T04:10:16;5.80;99.90
17956;DHT22;27666;51.498;11.966;2024-03-07T04:13:04;5.90;99.90
17956;DHT22;27666;51.498;11.966;2024-03-07T04:15:51;5.90;99.90
17956;DHT22;27666;51.498;11.966;2024-03-07T04:18:40;6.00;99.90
17956;DHT22;27666;51.498;11.966;2024-03-07T04:21:28;6.00;99.90
17956;DHT22;27666;51.498;11.966;2024-03-07T04:24:16;5.90;99.90
17956;DHT22;27666;51.498;11.966;2024-03-07T04:27:04;5.90;99.90
17956;DHT22;27666;51.498;11.966;2024-03-07T04:29:52;6.00;99.90
17956;DHT22;27666;51.498;11.966;2024-03-07T04:32:40;6.00;99.90
17956;DHT22;27666;51.498;11.966;2024-03-07T04:35:31;6.00;99.90
17956;DHT22;27666;51.498;11.966;2024-03-07T04:38:19;5.90;99.90
17956;DHT22;27666;51.498;11.966;2024-03-07T04:41:08;5.90;99.90
17956;DHT22;27666;51.498;11.966;2024-03-07T04:43:58;5.90;99.90
17956;DHT22;27666;51.498;11.966;2024-03-07T04:46:46;6.00;99.90
17956;DHT22;27666;51.498;11.966;2024-03-07T04:49:36;5.90;99.90
17956;DHT22;27666;51.498;11.966;2024-03-07T04:52:27;6.00;99.90
17956;DHT22;27666;51.498;11.966;2024-03-07T04:55:15;6.00;99.90
17956;DHT22;27666;51.498;11.966;2024-03-07T04:58:05;6.00;99.90
17956;DHT22;27666;51.498;11.966;2024-03-07T05:00:52;6.00;99.90
17956;DHT22;27666;51.498;11.966;2024-03-07T05:03:39;6.00;99.90
17956;DHT22;27666;51.498;11.966;2024-03-07T05:06:28;6.00;99.90
17956;DHT22;27666;51.498;11.966;2024-03-07T05:09:21;6.00;99.90
17956;DHT22;27666;51.498;11.966;2024-03-07T05:12:14;6.00;99.90
17956;DHT22;27666;51.498;11.966;2024-03-07T05:15:01;6.10;99.90
17956;DHT22;27666;51.498;11.966;2024-03-07T05:17:50;6.10;99.90
17956;DHT22;27666;51.498;11.966;2024-03-07T05:20:37;6.10;99.90
17956;DHT22;27666;51.498;11.966;2024-03-07T05:23:29;6.10;99.90
17956;DHT22;27666;51.498;11.966;2024-03-07T05:26:18;6.10;99.90
17956;DHT22;27666;51.498;11.966;2024-03-07T05:29:07;6.20;99.90
17956;DHT22;27666;51.498;11.966;2024-03-07T05:31:55;6.10;99.90
17956;DHT22;27666;51.498;11.966;2024-03-07T05:34:42;6.10;99.90
17956;DHT22;27666;51.498;11.966;2024-03-07T05:37:29;6.10;99.90
17956;DHT22;27666;51.498;11.966;2024-03-07T05:40:19;6.00;99.90
17956;DHT22;27666;51.498;11.966;2024-03-07T05:43:07;6.00;99.90
17956;DHT22;27666;51.498;11.966;2024-03-07T05:45:55;6.00;99.90
17956;DHT22;27666;51.498;11.966;2024-03-07T05:48:43;6.00;99.90
17956;DHT22;27666;51.498;11.966;2024-03-07T05:51:32;6.00;99.90
17956;DHT22;27666;51.498;11.966;2024-03-07T05:54:20;6.00;99.90
17956;DHT22;27666;51.498;11.966;2024-03-07T05:57:08;5.90;99.90
17956;DHT22;27666;51.498;11.966;2024-03-07T05:59:57;6.00;99.90
17956;DHT22;27666;51.498;11.966;2024-03-07T06:02:46;6.00;99.90
17956;DHT22;27666;51.498;11.966;2024-03-07T06:05:35;6.00;99.90
17956;DHT22;27666;51.498;11.966;2024-03-07T06:08:23;6.00;99.90
17956;DHT22;27666;51.498;11.966;2024-03-07T06:11:11;6.00;99.90
17956;DHT22;27666;51.498;11.966;2024-03-07T06:13:58;6.00;99.90
17956;DHT22;27666;51.498;11.966;2024-03-07T06:16:49;6.00;99.90
17956;DHT22;27666;51.498;11.966;2024-03-07T06:19:38;6.00;99.90
17956;DHT22;27666;51.498;11.966;2024-03-07T06:22:28;6.00;99.90
17956;DHT22;27666;51.498;11.966;2024-03-07T06:25:15;6.00;99.90
17956;DHT22;27666;51.498;11.966;2024-03-07T06:28:06;6.00;99.90
17956;DHT22;27666;51.498;11.966;2024-03-07T06:30:57;6.00;99.90
17956;DHT22;27666;51.498;11.966;2024-03-07T06:33:46;6.00;99.90
17956;DHT22;27666;51.498;11.966;2024-03-07T06:36:34;6.00;99.90
17956;DHT22;27666;51.498;11.966;2024-03-07T06:39:23;6.00;99.90
17956;DHT22;27666;51.498;11.966;2024-03-07T06:42:11;5.90;99.90
17956;DHT22;27666;51.498;11.966;2024-03-07T06:45:01;5.90;99.90
17956;DHT22;27666;51.498;11.966;2024-03-07T06:47:48;5.90;99.90
17956;DHT22;27666;51.498;11.966;2024-03-07T06:50:38;5.80;99.90
17956;DHT22;27666;51.498;11.966;2024-03-07T06:53:25;5.60;99.90
17956;DHT22;27666;51.498;11.966;2024-03-07T06:56:14;5.70;99.90
17956;DHT22;27666;51.498;11.966;2024-03-07T06:59:02;5.80;99.90
17956;DHT22;27666;51.498;11.966;2024-03-07T07:01:50;5.90;99.90
17956;DHT22;27666;51.498;11.966;2024-03-07T07:04:40;5.80;99.90
17956;DHT22;27666;51.498;11.966;2024-03-07T07:07:29;5.70;99.90
17956;DHT22;27666;51.498;11.966;2024-03-07T07:10:18;5.70;99.90
17956;DHT22;27666;51.498;11.966;2024-03-07T07:13:09;5.60;99.90
17956;DHT22;27666;51.498;11.966;2024-03-07T07:15:57;5.70;99.90
17956;DHT22;27666;51.498;11.966;2024-03-07T07:18:48;5.80;99.90
17956;DHT22;27666;51.498;11.966;2024-03-07T07:21:36;5.80;99.90
17956;DHT22;27666;51.498;11.966;2024-03-07T07:24:25;5.80;99.90
17956;DHT22;27666;51.498;11.966;2024-03-07T07:27:15;6.00;99.90
17956;DHT22;27666;51.498;11.966;2024-03-07T07:30:06;6.10;99.90
17956;DHT22;27666;51.498;11.966;2024-03-07T07:32:55;6.20;99.90
17956;DHT22;27666;51.498;11.966;2024-03-07T07:35:43;6.10;99.90
17956;DHT22;27666;51.498;11.966;2024-03-07T07:38:32;6.10;99.90
17956;DHT22;27666;51.498;11.966;2024-03-07T07:41:21;6.00;99.90
17956;DHT22;27666;51.498;11.966;2024-03-07T07:44:10;6.00;99.90
17956;DHT22;27666;51.498;11.966;2024-03-07T07:46:57;6.10;99.90
17956;DHT22;27666;51.498;11.966;2024-03-07T07:49:44;6.20;99.90
17956;DHT22;27666;51.498;11.966;2024-03-07T07:52:32;6.30;99.90
17956;DHT22;27666;51.498;11.966;2024-03-07T07:55:23;6.40;99.90
17956;DHT22;27666;51.498;11.966;2024-03-07T07:58:13;6.20;99.90
17956;DHT22;27666;51.498;11.966;2024-03-07T08:01:00;6.40;99.90
17956;DHT22;27666;51.498;11.966;2024-03-07T08:03:48;6.70;99.90
17956;DHT22;27666;51.498;11.966;2024-03-07T08:06:36;6.80;99.90
17956;DHT22;27666;51.498;11.966;2024-03-07T08:09:24;7.00;99.90
17956;DHT22;27666;51.498;11.966;2024-03-07T08:12:12;6.80;99.90
17956;DHT22;27666;51.498;11.966;2024-03-07T08:15:01;6.80;99.90
17956;DHT22;27666;51.498;11.966;2024-03-07T08:17:52;6.40;99.90
17956;DHT22;27666;51.498;11.966;2024-03-07T08:20:41;6.60;99.90
17956;DHT22;27666;51.498;11.966;2024-03-07T08:23:30;6.90;99.90
17956;DHT22;27666;51.498;11.966;2024-03-07T08:26:17;7.00;99.90
17956;DHT22;27666;51.498;11.966;2024-03-07T08:29:05;7.10;99.90
17956;DHT22;27666;51.498;11.966;2024-03-07T08:31:54;7.00;99.90
17956;DHT22;27666;51.498;11.966;2024-03-07T08:34:41;7.10;99.90
17956;DHT22;27666;51.498;11.966;2024-03-07T08:37:29;7.20;99.90
17956;DHT22;27666;51.498;11.966;2024-03-07T08:40:19;7.20;99.90
17956;DHT22;27666;51.498;11.966;2024-03-07T08:43:11;7.60;99.90
17956;DHT22;27666;51.498;11.966;2024-03-07T08:45:58;7.70;99.90
17956;DHT22;27666;51.498;11.966;2024-03-07T08:48:47;7.30;99.90
17956;DHT22;27666;51.498;11.966;2024-03-07T08:51:37;7.10;99.90
17956;DHT22;27666;51.498;11.966;2024-03-07T08:54:26;7.10;99.90
17956;DHT22;27666;51.498;11.966;2024-03-07T08:57:12;7.10;99.90
17956;DHT22;27666;51.498;11.966;2024-03-07T09:00:02;7.00;99.90
17956;DHT22;27666;51.498;11.966;2024-03-07T09:02:57;7.00;99.90
17956;DHT22;27666;51.498;11.966;2024-03-07T09:05:49;7.20;99.90
17956;DHT22;27666;51.498;11.966;2024-03-07T09:08:38;7.40;99.90
17956;DHT22;27666;51.498;11.966;2024-03-07T09:11:25;7.40;99.90
17956;DHT22;27666;51.498;11.966;2024-03-07T09:14:14;7.30;99.90
17956;DHT22;27666;51.498;11.966;2024-03-07T09:17:04;7.40;99.90
17956;DHT22;27666;51.498;11.966;2024-03-07T09:19:52;7.50;99.90
17956;DHT22;27666;51.498;11.966;2024-03-07T09:22:40;7.20;99.90
17956;DHT22;27666;51.498;11.966;2024-03-07T09:25:28;7.10;99.90
17956;DHT22;27666;51.498;11.966;2024-03-07T09:28:19;7.10;99.90
17956;DHT22;27666;51.498;11.966;2024-03-07T09:31:06;7.10;99.90
17956;DHT22;27666;51.498;11.966;2024-03-07T09:33:56;7.30;99.90
17956;DHT22;27666;51.498;11.966;2024-03-07T09:36:44;7.40;99.90
17956;DHT22;27666;51.498;11.966;2024-03-07T09:39:34;7.60;99.90
17956;DHT22;27666;51.498;11.966;2024-03-07T09:42:24;7.70;99.90
17956;DHT22;27666;51.498;11.966;2024-03-07T09:45:15;7.70;99.90
17956;DHT22;27666;51.498;11.966;2024-03-07T09:48:04;7.50;99.90
17956;DHT22;27666;51.498;11.966;2024-03-07T09:50:55;7.30;99.90
17956;DHT22;27666;51.498;11.966;2024-03-07T09:53:48;7.00;99.90
17956;DHT22;27666;51.498;11.966;2024-03-07T09:56:37;6.90;99.90
17956;DHT22;27666;51.498;11.966;2024-03-07T09:59:26;7.00;99.90
17956;DHT22;27666;51.498;11.966;2024-03-07T10:02:15;7.00;99.90
17956;DHT22;27666;51.498;11.966;2024-03-07T10:05:05;7.10;99.90
17956;DHT22;27666;51.498;11.966;2024-03-07T10:07:58;7.20;99.90
17956;DHT22;27666;51.498;11.966;2024-03-07T10:10:48;7.20;99.90
17956;DHT22;27666;51.498;11.966;2024-03-07T10:13:37;7.20;99.90
17956;DHT22;27666;51.498;11.966;2024-03-07T10:16:25;7.10;99.90
17956;DHT22;27666;51.498;11.966;2024-03-07T10:19:12;7.20;99.90
17956;DHT22;27666;51.498;11.966;2024-03-07T10:22:00;7.30;99.90
17956;DHT22;27666;51.498;11.966;2024-03-07T10:24:56;7.40;99.90
17956;DHT22;27666;51.498;11.966;2024-03-07T10:27:45;7.40;99.90
17956;DHT22;27666;51.498;11.966;2024-03-07T10:30:41;7.60;99.90
17956;DHT22;27666;51.498;11.966;2024-03-07T10:33:30;7.60;99.90
17956;DHT22;27666;51.498;11.966;2024-03-07T10:36:20;7.50;99.90
17956;DHT22;27666;51.498;11.966;2024-03-07T10:39:07;7.70;99.90
17956;DHT22;27666;51.498;11.966;2024-03-07T10:42:02;7.40;99.90
17956;DHT22;27666;51.498;11.966;2024-03-07T10:44:58;7.30;99.90
17956;DHT22;27666;51.498;11.966;2024-03-07T10:47:54;7.00;99.90
17956;DHT22;27666;51.498;11.966;2024-03-07T10:50:54;6.80;99.90
17956;DHT22;27666;51.498;11.966;2024-03-07T10:53:52;6.90;99.90
17956;DHT22;27666;51.498;11.966;2024-03-07T10:56:53;7.00;99.90
17956;DHT22;27666;51.498;11.966;2024-03-07T10:59:50;6.90;99.90
17956;DHT22;27666;51.498;11.966;2024-03-07T11:02:43;7.20;99.90
17956;DHT22;27666;51.498;11.966;2024-03-07T11:05:35;7.30;99.90
17956;DHT22;27666;51.498;11.966;2024-03-07T11:08:23;7.40;99.90
17956;DHT22;27666;51.498;11.966;2024-03-07T11:11:13;7.40;99.90
17956;DHT22;27666;51.498;11.966;2024-03-07T11:14:02;7.40;99.90
17956;DHT22;27666;51.498;11.966;2024-03-07T11:16:52;7.50;99.90
17956;DHT22;27666;51.498;11.966;2024-03-07T11:19:41;7.40;99.90
17956;DHT22;27666;51.498;11.966;2024-03-07T11:22:33;7.60;99.90
17956;DHT22;27666;51.498;11.966;2024-03-07T11:25:21;7.60;99.90
17956;DHT22;27666;51.498;11.966;2024-03-07T11:28:16;7.70;99.90
17956;DHT22;27666;51.498;11.966;2024-03-07T11:31:09;7.50;99.90
17956;DHT22;27666;51.498;11.966;2024-03-07T11:34:15;7.40;99.90
17956;DHT22;27666;51.498;11.966;2024-03-07T11:37:04;7.50;99.90
17956;DHT22;27666;51.498;11.966;2024-03-07T11:39:58;7.50;99.90
17956;DHT22;27666;51.498;11.966;2024-03-07T11:42:54;7.30;99.90
17956;DHT22;27666;51.498;11.966;2024-03-07T11:45:43;6.90;99.90
17956;DHT22;27666;51.498;11.966;2024-03-07T11:48:39;6.70;99.90
17956;DHT22;27666;51.498;11.966;2024-03-07T11:51:28;6.70;99.90
17956;DHT22;27666;51.498;11.966;2024-03-07T11:54:15;6.80;99.90
17956;DHT22;27666;51.498;11.966;2024-03-07T11:57:11;7.00;99.90
17956;DHT22;27666;51.498;11.966;2024-03-07T11:59:59;7.10;99.90
17956;DHT22;27666;51.498;11.966;2024-03-07T12:02:56;7.30;99.90
17956;DHT22;27666;51.498;11.966;2024-03-07T12:05:44;7.30;99.90
17956;DHT22;27666;51.498;11.966;2024-03-07T12:08:35;7.40;99.90
17956;DHT22;27666;51.498;11.966;2024-03-07T12:11:24;7.40;99.90
17956;DHT22;27666;51.498;11.966;2024-03-07T12:14:15;7.40;99.90
17956;DHT22;27666;51.498;11.966;2024-03-07T12:17:04;7.40;99.90
17956;DHT22;27666;51.498;11.966;2024-03-07T12:19:52;7.50;99.90
17956;DHT22;27666;51.498;11.966;2024-03-07T12:22:47;7.50;99.90
17956;DHT22;27666;51.498;11.966;2024-03-07T12:25:36;7.60;99.90
17956;DHT22;27666;51.498;11.966;2024-03-07T12:28:24;7.40;99.90
17956;DHT22;27666;51.498;11.966;2024-03-07T12:31:17;7.40;99.90
17956;DHT22;27666;51.498;11.966;2024-03-07T12:34:04;7.30;99.90
17956;DHT22;27666;51.498;11.966;2024-03-07T12:36:55;7.10;99.90
17956;DHT22;27666;51.498;11.966;2024-03-07T12:39:43;7.10;99.90
17956;DHT22;27666;51.498;11.966;2024-03-07T12:42:34;7.20;99.90
17956;DHT22;27666;51.498;11.966;2024-03-07T12:45:22;7.10;99.90
17956;DHT22;27666;51.498;11.966;2024-03-07T12:48:12;7.00;99.90
17956;DHT22;27666;51.498;11.966;2024-03-07T12:51:00;7.30;99.90
17956;DHT22;27666;51.498;11.966;2024-03-07T12:53:48;7.30;99.90
17956;DHT22;27666;51.498;11.966;2024-03-07T12:56:35;7.10;99.90
17956;DHT22;27666;51.498;11.966;2024-03-07T13:02:26;7.10;99.90
17956;DHT22;27666;51.498;11.966;2024-03-07T13:05:17;7.20;99.90
17956;DHT22;27666;51.498;11.966;2024-03-07T13:08:08;7.00;99.90
17956;DHT22;27666;51.498;11.966;2024-03-07T13:10:57;6.70;99.90
17956;DHT22;27666;51.498;11.966;2024-03-07T13:13:47;6.50;99.90
17956;DHT22;27666;51.498;11.966;2024-03-07T13:16:35;6.60;99.90
17956;DHT22;27666;51.498;11.966;2024-03-07T13:19:23;6.70;99.90
17956;DHT22;27666;51.498;11.966;2024-03-07T13:22:13;6.60;99.90
17956;DHT22;27666;51.498;11.966;2024-03-07T13:25:02;6.70;99.90
17956;DHT22;27666;51.498;11.966;2024-03-07T13:28:02;6.70;99.90
17956;DHT22;27666;51.498;11.966;2024-03-07T13:30:50;6.70;99.90
17956;DHT22;27666;51.498;11.966;2024-03-07T13:33:41;6.90;99.90
17956;DHT22;27666;51.498;11.966;2024-03-07T13:36:30;6.80;99.90
17956;DHT22;27666;51.498;11.966;2024-03-07T13:39:20;6.70;99.90
17956;DHT22;27666;51.498;11.966;2024-03-07T13:42:09;6.70;99.90
17956;DHT22;27666;51.498;11.966;2024-03-07T13:44:57;6.80;99.90
17956;DHT22;27666;51.498;11.966;2024-03-07T13:47:47;6.90;99.90
17956;DHT22;27666;51.498;11.966;2024-03-07T13:50:36;6.90;99.90
17956;DHT22;27666;51.498;11.966;2024-03-07T13:53:43;6.90;99.90
17956;DHT22;27666;51.498;11.966;2024-03-07T13:56:50;7.00;99.90
17956;DHT22;27666;51.498;11.966;2024-03-07T14:00:00;7.00;99.90
17956;DHT22;27666;51.498;11.966;2024-03-07T14:03:32;7.00;99.90
17956;DHT22;27666;51.498;11.966;2024-03-07T14:06:30;6.90;99.90
17956;DHT22;27666;51.498;11.966;2024-03-07T14:09:44;6.80;99.90
17956;DHT22;27666;51.498;11.966;2024-03-07T14:12:48;6.90;99.90
17956;DHT22;27666;51.498;11.966;2024-03-07T14:16:18;7.00;99.90
17956;DHT22;27666;51.498;11.966;2024-03-07T14:19:32;7.00;99.90
17956;DHT22;27666;51.498;11.966;2024-03-07T14:22:40;7.10;99.90
17956;DHT22;27666;51.498;11.966;2024-03-07T14:25:49;7.10;99.90
17956;DHT22;27666;51.498;11.966;2024-03-07T14:29:03;7.20;99.90
17956;DHT22;27666;51.498;11.966;2024-03-07T14:31:56;7.20;99.90
17956;DHT22;27666;51.498;11.966;2024-03-07T14:34:57;7.10;99.90
17956;DHT22;27666;51.498;11.966;2024-03-07T14:37:50;7.10;99.90
17956;DHT22;27666;51.498;11.966;2024-03-07T14:40:41;7.10;99.90
17956;DHT22;27666;51.498;11.966;2024-03-07T14:43:30;7.20;99.90
17956;DHT22;27666;51.498;11.966;2024-03-07T14:46:20;7.30;99.90
17956;DHT22;27666;51.498;11.966;2024-03-07T14:49:09;7.10;99.90
17956;DHT22;27666;51.498;11.966;2024-03-07T14:51:57;7.10;99.90
17956;DHT22;27666;51.498;11.966;2024-03-07T14:54:46;7.10;99.90
17956;DHT22;27666;51.498;11.966;2024-03-07T14:57:33;7.20;99.90
17956;DHT22;27666;51.498;11.966;2024-03-07T15:00:22;7.10;99.90
17956;DHT22;27666;51.498;11.966;2024-03-07T15:03:24;7.20;99.90
17956;DHT22;27666;51.498;11.966;2024-03-07T15:06:22;7.10;99.90
17956;DHT22;27666;51.498;11.966;2024-03-07T15:09:11;7.10;99.90
17956;DHT22;27666;51.498;11.966;2024-03-07T15:12:01;7.10;99.90
17956;DHT22;27666;51.498;11.966;2024-03-07T15:14:52;7.10;99.90
17956;DHT22;27666;51.498;11.966;2024-03-07T15:17:55;7.10;99.90
17956;DHT22;27666;51.498;11.966;2024-03-07T15:20:45;7.20;99.90
17956;DHT22;27666;51.498;11.966;2024-03-07T15:23:32;7.30;99.90
17956;DHT22;27666;51.498;11.966;2024-03-07T15:26:20;7.30;99.90
17956;DHT22;27666;51.498;11.966;2024-03-07T15:29:10;7.20;99.90
17956;DHT22;27666;51.498;11.966;2024-03-07T15:31:57;7.30;99.90
17956;DHT22;27666;51.498;11.966;2024-03-07T15:34:45;7.30;99.90
17956;DHT22;27666;51.498;11.966;2024-03-07T15:37:39;7.30;99.90
17956;DHT22;27666;51.498;11.966;2024-03-07T15:40:32;7.20;99.90
17956;DHT22;27666;51.498;11.966;2024-03-07T15:43:19;7.30;99.90
17956;DHT22;27666;51.498;11.966;2024-03-07T15:46:06;7.30;99.90
17956;DHT22;27666;51.498;11.966;2024-03-07T15:48:54;7.20;99.90
17956;DHT22;27666;51.498;11.966;2024-03-07T15:51:41;7.30;99.90
17956;DHT22;27666;51.498;11.966;2024-03-07T15:54:34;7.20;99.90
17956;DHT22;27666;51.498;11.966;2024-03-07T15:57:21;7.30;99.90
17956;DHT22;27666;51.498;11.966;2024-03-07T16:00:10;7.10;99.90
17956;DHT22;27666;51.498;11.966;2024-03-07T16:03:09;7.10;99.90
17956;DHT22;27666;51.498;11.966;2024-03-07T16:05:57;7.10;99.90
17956;DHT22;27666;51.498;11.966;2024-03-07T16:08:45;7.10;99.90
17956;DHT22;27666;51.498;11.966;2024-03-07T16:11:35;7.10;99.90
17956;DHT22;27666;51.498;11.966;2024-03-07T16:14:22;7.10;99.90
17956;DHT22;27666;51.498;11.966;2024-03-07T16:17:10;7.10;99.90
17956;DHT22;27666;51.498;11.966;2024-03-07T16:19:59;7.20;99.90
17956;DHT22;27666;51.498;11.966;2024-03-07T16:22:46;7.10;99.90
17956;DHT22;27666;51.498;11.966;2024-03-07T16:25:36;7.00;99.90
17956;DHT22;27666;51.498;11.966;2024-03-07T16:28:26;7.00;99.90
17956;DHT22;27666;51.498;11.966;2024-03-07T16:31:14;6.90;99.90
17956;DHT22;27666;51.498;11.966;2024-03-07T16:34:00;7.00;99.90
17956;DHT22;27666;51.498;11.966;2024-03-07T16:36:48;7.00;99.90
17956;DHT22;27666;51.498;11.966;2024-03-07T16:39:39;6.90;99.90
17956;DHT22;27666;51.498;11.966;2024-03-07T16:42:30;6.90;99.90
17956;DHT22;27666;51.498;11.966;2024-03-07T16:45:23;6.90;99.90
17956;DHT22;27666;51.498;11.966;2024-03-07T16:48:12;6.80;99.90
17956;DHT22;27666;51.498;11.966;2024-03-07T16:51:03;6.90;99.90
17956;DHT22;27666;51.498;11.966;2024-03-07T16:53:53;6.90;99.90
17956;DHT22;27666;51.498;11.966;2024-03-07T16:56:42;6.80;99.90
17956;DHT22;27666;51.498;11.966;2024-03-07T16:59:32;6.80;99.90
17956;DHT22;27666;51.498;11.966;2024-03-07T17:02:24;6.80;99.90
17956;DHT22;27666;51.498;11.966;2024-03-07T17:05:12;6.80;99.90
17956;DHT22;27666;51.498;11.966;2024-03-07T17:08:04;6.80;99.90
17956;DHT22;27666;51.498;11.966;2024-03-07T17:10:52;6.80;99.90
17956;DHT22;27666;51.498;11.966;2024-03-07T17:13:42;6.70;99.90
17956;DHT22;27666;51.498;11.966;2024-03-07T17:16:31;6.60;99.90
17956;DHT22;27666;51.498;11.966;2024-03-07T17:19:19;6.60;99.90
17956;DHT22;27666;51.498;11.966;2024-03-07T17:22:11;6.50;99.90
17956;DHT22;27666;51.498;11.966;2024-03-07T17:25:02;6.60;99.90
17956;DHT22;27666;51.498;11.966;2024-03-07T17:27:52;6.50;99.90
17956;DHT22;27666;51.498;11.966;2024-03-07T17:30:40;6.50;99.90
17956;DHT22;27666;51.498;11.966;2024-03-07T17:33:34;6.40;99.90
17956;DHT22;27666;51.498;11.966;2024-03-07T17:36:34;6.40;99.90
17956;DHT22;27666;51.498;11.966;2024-03-07T17:39:22;6.40;99.90
17956;DHT22;27666;51.498;11.966;2024-03-07T17:42:12;6.30;99.90
17956;DHT22;27666;51.498;11.966;2024-03-07T17:45:00;6.30;99.90
17956;DHT22;27666;51.498;11.966;2024-03-07T17:47:57;6.30;99.90
17956;DHT22;27666;51.498;11.966;2024-03-07T17:50:45;6.30;99.90
17956;DHT22;27666;51.498;11.966;2024-03-07T17:53:40;6.30;99.90
17956;DHT22;27666;51.498;11.966;2024-03-07T17:56:30;6.30;99.90